Ice Star — OUJK2 — position and weather

sailwx.info

Track history (hours):
 
Tides and Currents Weather Stations Pressure Air Temp Water Temp Dewpoint Dewpoint Depression Visibility Wind Speed Wind Dir Waves Ship Positions

Ice Star

Last reported at 2017-Jun-20 23:06 UTC. Time now 2017-Jun-25 12:20 UTC.
Position N 37°13' E 122°48'.

Length 367 m; draft 10.8 m.

Type: Cargo ship. MMSI: 220596000.

Date/timePositionNaut miles runAvg speedWind from/ knotsBaromVisibWave heightAir tempDewpointWater temp
2017-Jun-20 23:06N 37°13' E 122°48'213.2
2017-Jun-20 22:57N 37°15' E 122°48'612.9
2017-Jun-20 22:30N 37°20' E 122°48'612.4
2017-Jun-20 22:00N 37°26' E 122°47'612.4
2017-Jun-20 21:30N 37°32' E 122°43'612.4
2017-Jun-20 21:00N 37°37' E 122°39'612.2
2017-Jun-20 20:30N 37°42' E 122°34'612.0
2017-Jun-20 20:00N 37°45' E 122°28'611.9
2017-Jun-20 19:30N 37°48' E 122°21'811.9
2017-Jun-20 18:52N 37°51' E 122°13'412.3
2017-Jun-20 18:30N 37°54' E 122°08'612.4
2017-Jun-20 18:00N 37°58' E 122°02'612.8
2017-Jun-20 17:30N 38°01' E 121°55'1213.1
2017-Jun-20 16:34N 38°08' E 121°42'413.1
2017-Jun-20 16:15N 38°11' E 121°38'713.4
2017-Jun-20 15:42N 38°15' E 121°30'313.2
2017-Jun-20 15:26N 38°17' E 121°26'612.9
2017-Jun-20 15:00N 38°20' E 121°20'1512.1
2017-Jun-20 13:47N 38°28' E 121°05'311.6
2017-Jun-20 13:30N 38°29' E 121°01'2211.4
2017-Jun-20 11:31N 38°36' E 120°33'311.3
2017-Jun-20 11:16N 38°36' E 120°30'411.6
2017-Jun-20 10:56N 38°37' E 120°25'511.7
2017-Jun-20 10:30N 38°37' E 120°18'611.7
2017-Jun-20 10:00N 38°38' E 120°11'612.0
2017-Jun-20 09:30N 38°39' E 120°03'712.3
2017-Jun-20 08:56N 38°39' E 119°54'512.6
2017-Jun-20 08:30N 38°40' E 119°47'612.7
2017-Jun-20 08:00N 38°41' E 119°39'22 0.6
2017-Jun-18 21:26N 38°47' E 119°12'614.3
2017-Jun-18 21:00N 38°47' E 119°20'714.0
2017-Jun-18 20:30N 38°46' E 119°29'714.0
2017-Jun-18 20:00N 38°45' E 119°38'813.8
2017-Jun-18 19:24N 38°44' E 119°49'1213.8
2017-Jun-18 18:34N 38°43' E 120°03'113.4
2017-Jun-18 18:30N 38°43' E 120°05'713.9
2017-Jun-18 17:59N 38°42' E 120°14'4313.3
2017-Jun-18 14:42N 38°32' E 121°08'1113.1
2017-Jun-18 13:49N 38°27' E 121°21'513.1
2017-Jun-18 13:28N 38°24' E 121°26'613.3
2017-Jun-18 13:00N 38°21' E 121°33'713.4
2017-Jun-18 12:30N 38°18' E 121°40'713.7
2017-Jun-18 12:00N 38°14' E 121°48'1714.4
2017-Jun-18 10:49N 38°05' E 122°06'414.2
2017-Jun-18 10:30N 38°02' E 122°10'  
Track history (hours):
 
Tides and Currents Weather Stations Pressure Air Temp Water Temp Dewpoint Dewpoint Depression Visibility Wind Speed Wind Dir Waves Ship Positions

Ice Star

Last reported at 2017-Jun-20 23:06 UTC. Time now 2017-Jun-25 12:20 UTC.
Position N 37°13' E 122°48'.

Length 367 m; draft 10.8 m.

Type: Cargo ship. MMSI: 220596000.

Date/timePositionNaut miles runAvg speedWind from/ knotsBaromVisibWave heightAir tempDewpointWater temp
2017-Jun-20 23:06N 37°13' E 122°48'213.2
2017-Jun-20 22:57N 37°15' E 122°48'612.9
2017-Jun-20 22:30N 37°20' E 122°48'612.4
2017-Jun-20 22:00N 37°26' E 122°47'612.4
2017-Jun-20 21:30N 37°32' E 122°43'612.4
2017-Jun-20 21:00N 37°37' E 122°39'612.2
2017-Jun-20 20:30N 37°42' E 122°34'612.0
2017-Jun-20 20:00N 37°45' E 122°28'611.9
2017-Jun-20 19:30N 37°48' E 122°21'811.9
2017-Jun-20 18:52N 37°51' E 122°13'412.3
2017-Jun-20 18:30N 37°54' E 122°08'612.4
2017-Jun-20 18:00N 37°58' E 122°02'612.8
2017-Jun-20 17:30N 38°01' E 121°55'1213.1
2017-Jun-20 16:34N 38°08' E 121°42'413.1
2017-Jun-20 16:15N 38°11' E 121°38'713.4
2017-Jun-20 15:42N 38°15' E 121°30'313.2
2017-Jun-20 15:26N 38°17' E 121°26'612.9
2017-Jun-20 15:00N 38°20' E 121°20'1512.1
2017-Jun-20 13:47N 38°28' E 121°05'311.6
2017-Jun-20 13:30N 38°29' E 121°01'2211.4
2017-Jun-20 11:31N 38°36' E 120°33'311.3
2017-Jun-20 11:16N 38°36' E 120°30'411.6
2017-Jun-20 10:56N 38°37' E 120°25'511.7
2017-Jun-20 10:30N 38°37' E 120°18'611.7
2017-Jun-20 10:00N 38°38' E 120°11'612.0
2017-Jun-20 09:30N 38°39' E 120°03'712.3
2017-Jun-20 08:56N 38°39' E 119°54'512.6
2017-Jun-20 08:30N 38°40' E 119°47'612.7
2017-Jun-20 08:00N 38°41' E 119°39'22 0.6
2017-Jun-18 21:26N 38°47' E 119°12'614.3
2017-Jun-18 21:00N 38°47' E 119°20'714.0
2017-Jun-18 20:30N 38°46' E 119°29'714.0
2017-Jun-18 20:00N 38°45' E 119°38'813.8
2017-Jun-18 19:24N 38°44' E 119°49'1213.8
2017-Jun-18 18:34N 38°43' E 120°03'113.4
2017-Jun-18 18:30N 38°43' E 120°05'713.9
2017-Jun-18 17:59N 38°42' E 120°14'4313.3
2017-Jun-18 14:42N 38°32' E 121°08'1113.1
2017-Jun-18 13:49N 38°27' E 121°21'513.1
2017-Jun-18 13:28N 38°24' E 121°26'613.3
2017-Jun-18 13:00N 38°21' E 121°33'713.4
2017-Jun-18 12:30N 38°18' E 121°40'713.7
2017-Jun-18 12:00N 38°14' E 121°48'1714.4
2017-Jun-18 10:49N 38°05' E 122°06'414.2
2017-Jun-18 10:30N 38°02' E 122°10'  

Dump ship's entire track history